Time;durP1;ratioP1;P1;durP2;ratioP2;P2;SDS_P1;SDS_P2;PMS_P1;PMS_P2;Temp;Humidity;BMP_temperature;BMP_pressure;BME280_temperature;BME280_humidity;BME280_pressure;Samples;Min_cycle;Max_cycle;Signal;HPM_P1;HPM_P2
2023/05/27 00:02:47;;;;;;;;;;;;;;;21.62;51.01;100700.12;5308707;32;45076;-86
2023/05/27 00:05:49;;;;;;;;;;;;;;;21.58;51.26;100698.69;5324416;32;35365;-86
2023/05/27 00:08:51;;;;;;;;;;;;;;;21.62;51.11;100700.12;5326550;32;34827;-85
2023/05/27 00:11:53;;;;;;;;;;;;;;;21.31;52.06;100699.03;5332604;32;35563;-85
2023/05/27 00:14:55;;;;;;;;;;;;;;;21.84;50.76;100699.25;5319571;32;35869;-84
2023/05/27 00:17:59;;;;;;;;;;;;;;;21.21;52.39;100692.72;5325157;32;34789;-85
2023/05/27 00:21:02;;;;;;;;;;;;;;;21.28;52.29;100687.72;5332378;32;33591;-86
2023/05/27 00:24:04;;;;;;;;;;;;;;;21.71;51.18;100690.53;5351749;32;47199;-85
2023/05/27 00:27:07;;;;;;;;;;;;;;;21.83;50.96;100688.66;5366051;32;36144;-85
2023/05/27 00:30:09;;;;;;;;;;;;;;;20.94;53.42;100695.72;5363138;32;35342;-86
2023/05/27 00:33:11;;;;;;;;;;;;;;;21.28;52.60;100696.62;5394958;32;35286;-85
2023/05/27 00:36:14;;;;;;;;;;;;;;;21.44;52.11;100684.69;5381234;32;34953;-85
2023/05/27 00:39:16;;;;;;;;;;;;;;;21.56;51.89;100687.25;5379811;32;34976;-85
2023/05/27 00:42:18;;;;;;;;;;;;;;;21.62;51.65;100681.41;5393072;32;34959;-86
2023/05/27 00:45:20;;;;;;;;;;;;;;;21.64;51.53;100683.97;5379886;32;37127;-86
2023/05/27 00:48:22;;;;;;;;;;;;;;;21.13;52.67;100688.94;5391332;32;34400;-85
2023/05/27 00:51:24;;;;;;;;;;;;;;;21.18;52.77;100697.44;5367281;32;35034;-86
2023/05/27 00:54:27;;;;;;;;;;;;;;;21.57;51.92;100690.78;5376448;32;1014965;-85
2023/05/27 00:57:30;;;;;;;;;;;;;;;21.13;52.89;100691.63;5366216;32;20016;-85
2023/05/27 01:00:32;;;;;;;;;;;;;;;21.22;52.78;100688.22;5364321;32;20503;-85
2023/05/27 01:03:34;;;;;;;;;;;;;;;21.81;51.16;100693.28;5381682;32;32886;-85
2023/05/27 01:06:39;;;;;;;;;;;;;;;21.14;53.02;100698.66;5375839;32;47097;-85
2023/05/27 01:09:44;;;;;;;;;;;;;;;21.53;52.03;100690.19;5388718;32;34109;-86
2023/05/27 01:12:48;;;;;;;;;;;;;;;21.35;52.46;100694.31;5382204;32;33251;-85
2023/05/27 01:15:50;;;;;;;;;;;;;;;21.37;52.45;100689.69;5383623;32;33566;-86
2023/05/27 01:18:53;;;;;;;;;;;;;;;21.36;52.37;100688.84;5367087;32;37595;-86
2023/05/27 01:21:55;;;;;;;;;;;;;;;21.17;53.11;100685.88;5369044;32;34408;-86
2023/05/27 01:24:57;;;;;;;;;;;;;;;21.20;52.85;100684.81;5376979;32;33977;-86
2023/05/27 01:28:00;;;;;;;;;;;;;;;21.39;52.40;100677.06;5364323;32;34402;-86
2023/05/27 01:31:06;;;;;;;;;;;;;;;21.84;51.26;100682.38;5392990;32;33496;-87
2023/05/27 01:34:11;;;;;;;;;;;;;;;21.03;53.48;100680.78;5358065;32;45046;-86
2023/05/27 01:37:13;;;;;;;;;;;;;;;20.66;54.61;100682.78;5382253;32;33706;-86
2023/05/27 01:40:16;;;;;;;;;;;;;;;20.83;54.09;100685.84;5377849;32;34063;-86
2023/05/27 01:43:18;;;;;;;;;;;;;;;20.62;54.55;100686.66;5367480;32;34487;-86
2023/05/27 01:46:20;;;;;;;;;;;;;;;20.66;54.63;100683.63;5385451;32;33815;-86
2023/05/27 01:49:22;;;;;;;;;;;;;;;21.07;53.53;100677.75;5363567;32;35389;-87
2023/05/27 01:52:24;;;;;;;;;;;;;;;21.31;52.75;100683.00;5392852;32;33424;-86
2023/05/27 01:55:27;;;;;;;;;;;;;;;20.93;53.58;100680.66;5371154;32;33144;-86
2023/05/27 01:58:29;;;;;;;;;;;;;;;20.83;54.22;100680.50;5375164;32;34327;-86
2023/05/27 02:01:34;;;;;;;;;;;;;;;20.47;54.94;100677.97;5363657;32;34909;-86
2023/05/27 02:04:36;;;;;;;;;;;;;;;20.64;54.53;100666.03;5376566;32;44530;-85
2023/05/27 02:07:38;;;;;;;;;;;;;;;20.45;54.94;100675.44;5380112;32;33273;-85
2023/05/27 02:10:40;;;;;;;;;;;;;;;20.44;54.74;100673.69;5379982;32;32475;-85
2023/05/27 02:13:42;;;;;;;;;;;;;;;20.71;54.25;100675.25;5377828;32;34612;-87
2023/05/27 02:16:45;;;;;;;;;;;;;;;21.10;53.21;100677.50;5382605;32;34110;-85
2023/05/27 02:19:47;;;;;;;;;;;;;;;20.76;53.99;100673.09;5380968;32;33333;-86
2023/05/27 02:22:51;;;;;;;;;;;;;;;20.66;54.46;100674.75;5390258;32;34161;-85
2023/05/27 02:25:53;;;;;;;;;;;;;;;21.41;52.20;100668.91;5371606;32;33142;-86
2023/05/27 02:28:56;;;;;;;;;;;;;;;20.64;54.17;100676.72;5378939;32;33339;-86
2023/05/27 02:31:58;;;;;;;;;;;;;;;20.55;54.52;100670.25;5379622;32;35526;-86
2023/05/27 02:35:00;;;;;;;;;;;;;;;20.65;54.41;100675.72;5390951;32;34820;-86
2023/05/27 02:38:02;;;;;;;;;;;;;;;20.59;54.63;100665.53;5360743;32;34192;-84
2023/05/27 02:41:04;;;;;;;;;;;;;;;20.83;53.50;100675.16;5380927;32;44715;-86
2023/05/27 02:44:08;;;;;;;;;;;;;;;20.32;54.93;100679.12;5359095;32;34232;-85
2023/05/27 02:47:14;;;;;;;;;;;;;;;20.47;54.55;100676.16;5381045;32;33501;-86
2023/05/27 02:50:16;;;;;;;;;;;;;;;20.14;55.75;100681.34;5393786;32;33832;-86
2023/05/27 02:53:18;;;;;;;;;;;;;;;19.69;56.95;100687.25;5381362;32;32967;-85
2023/05/27 02:56:22;;;;;;;;;;;;;;;20.00;56.15;100677.87;5371157;32;33535;-86
2023/05/27 02:59:24;;;;;;;;;;;;;;;20.24;55.36;100680.53;5378082;32;34538;-85
2023/05/27 03:02:26;;;;;;;;;;;;;;;20.33;55.27;100679.00;5380045;32;34421;-85
2023/05/27 03:05:28;;;;;;;;;;;;;;;20.08;55.95;100673.78;5395049;32;32963;-85
2023/05/27 03:08:31;;;;;;;;;;;;;;;20.50;54.47;100680.44;5344245;32;33534;-85
2023/05/27 03:11:43;;;;;;;;;;;;;;;20.68;54.08;100675.50;5331072;32;44574;-85
2023/05/27 03:14:45;;;;;;;;;;;;;;;20.38;54.66;100682.16;5380467;32;33802;-85
2023/05/27 03:17:47;;;;;;;;;;;;;;;20.69;53.66;100682.56;5382823;32;34341;-86
2023/05/27 03:20:50;;;;;;;;;;;;;;;20.59;53.78;100697.56;5387141;32;35202;-84
2023/05/27 03:23:52;;;;;;;;;;;;;;;20.78;53.16;100687.16;5381717;32;34557;-86
2023/05/27 03:26:54;;;;;;;;;;;;;;;20.37;54.59;100687.63;5374301;32;33912;-85
2023/05/27 03:29:56;;;;;;;;;;;;;;;20.71;53.69;100681.44;5361309;32;33953;-86
2023/05/27 03:32:58;;;;;;;;;;;;;;;20.44;54.17;100687.03;5386257;32;33822;-85
2023/05/27 03:36:00;;;;;;;;;;;;;;;20.09;55.10;100689.66;5360171;32;34172;-86
2023/05/27 03:39:11;;;;;;;;;;;;;;;20.45;53.89;100694.13;5356609;32;33337;-85
2023/05/27 03:42:22;;;;;;;;;;;;;;;20.51;53.68;100700.81;5348811;32;33671;-85
2023/05/27 03:45:24;;;;;;;;;;;;;;;19.72;55.63;100704.87;5358497;32;33851;-85
2023/05/27 03:48:26;;;;;;;;;;;;;;;20.51;53.61;100698.16;5378722;32;34019;-85
2023/05/27 03:51:28;;;;;;;;;;;;;;;20.23;53.86;100700.19;5358696;32;34010;-86
2023/05/27 03:54:30;;;;;;;;;;;;;;;19.94;54.56;100712.16;5376448;32;33743;-86
2023/05/27 03:57:36;;;;;;;;;;;;;;;20.08;54.26;100701.31;5364215;32;35678;-86
2023/05/27 04:00:38;;;;;;;;;;;;;;;20.04;54.38;100702.53;5358127;32;44627;-85
2023/05/27 04:03:41;;;;;;;;;;;;;;;20.28;53.64;100691.81;5389299;32;35819;-86
2023/05/27 04:06:43;;;;;;;;;;;;;;;20.31;53.68;100702.28;5376010;32;33698;-85
2023/05/27 04:09:45;;;;;;;;;;;;;;;20.79;52.13;100694.22;5390379;32;33119;-85
2023/05/27 04:12:47;;;;;;;;;;;;;;;20.45;52.95;100696.78;5375743;32;33415;-85
2023/05/27 04:15:49;;;;;;;;;;;;;;;20.35;53.45;100702.88;5387439;32;33614;-84
2023/05/27 04:18:52;;;;;;;;;;;;;;;20.45;52.91;100694.13;5379474;32;34354;-84
2023/05/27 04:21:54;;;;;;;;;;;;;;;20.75;52.34;100700.78;5380273;32;33195;-85
2023/05/27 04:24:57;;;;;;;;;;;;;;;20.53;52.89;100705.06;5377725;32;33661;-86
2023/05/27 04:27:59;;;;;;;;;;;;;;;20.01;54.05;100714.25;5359842;32;33747;-86
2023/05/27 04:31:01;;;;;;;;;;;;;;;19.90;54.29;100727.53;5391334;32;33619;-84
2023/05/27 04:34:03;;;;;;;;;;;;;;;20.03;54.00;100714.16;5376856;32;33718;-84
2023/05/27 04:37:06;;;;;;;;;;;;;;;21.04;51.14;100707.38;5371695;32;44787;-85
2023/05/27 04:40:09;;;;;;;;;;;;;;;20.37;52.15;100715.19;5374897;32;33746;-83
2023/05/27 04:43:13;;;;;;;;;;;;;;;21.21;50.34;100716.75;5377182;32;32967;-85
2023/05/27 04:46:16;;;;;;;;;;;;;;;20.70;51.07;100721.63;5389706;32;35290;-85
2023/05/27 04:49:19;;;;;;;;;;;;;;;20.81;51.00;100729.69;5379857;32;33279;-84
2023/05/27 04:52:23;;;;;;;;;;;;;;;21.69;48.77;100721.87;5390234;32;33535;-85
2023/05/27 04:55:25;;;;;;;;;;;;;;;21.29;49.18;100730.41;5370573;32;33717;-85
2023/05/27 04:58:28;;;;;;;;;;;;;;;22.54;46.40;100714.03;5358788;32;33650;-86
2023/05/27 05:01:39;;;;;;;;;;;;;;;22.59;45.64;100717.16;5376907;32;35232;-86
2023/05/27 05:04:42;;;;;;;;;;;;;;;22.36;46.37;100720.94;5375810;32;44547;-85
2023/05/27 05:07:44;;;;;;;;;;;;;;;22.42;46.56;100718.59;5387988;32;33063;-86
2023/05/27 05:10:47;;;;;;;;;;;;;;;24.23;42.43;100718.94;5377421;32;34893;-86
2023/05/27 05:13:49;;;;;;;;;;;;;;;24.50;40.99;100721.81;5390015;32;32703;-85
2023/05/27 05:16:51;;;;;;;;;;;;;;;24.39;40.90;100726.47;5354602;32;33479;-85
2023/05/27 05:19:53;;;;;;;;;;;;;;;23.45;42.40;100731.28;5383137;32;35397;-82
2023/05/27 05:22:56;;;;;;;;;;;;;;;23.56;42.30;100738.34;5382444;32;34259;-85
2023/05/27 05:26:05;;;;;;;;;;;;;;;22.83;42.96;100740.19;5353422;32;33172;-86
2023/05/27 05:29:08;;;;;;;;;;;;;;;24.45;39.92;100729.44;5368732;32;44642;-86
2023/05/27 05:32:11;;;;;;;;;;;;;;;23.49;41.60;100738.03;5383826;32;33171;-86
2023/05/27 05:35:13;;;;;;;;;;;;;;;23.84;40.67;100736.81;5371151;32;33653;-85
2023/05/27 05:38:16;;;;;;;;;;;;;;;23.16;42.55;100742.69;5378637;32;33098;-87
2023/05/27 05:41:35;;;;;;;;;;;;;;;23.81;41.02;100743.28;5374022;32;33379;-86
2023/05/27 05:44:52;;;;;;;;;;;;;;;23.97;40.84;100742.78;5381831;32;34873;-84
2023/05/27 05:48:00;;;;;;;;;;;;;;;24.43;39.80;100735.94;5354804;32;33193;-85
2023/05/27 05:51:06;;;;;;;;;;;;;;;25.17;37.91;100738.84;5385002;32;44540;-85
2023/05/27 05:54:09;;;;;;;;;;;;;;;24.16;39.47;100748.19;5381111;32;35481;-86
2023/05/27 05:57:11;;;;;;;;;;;;;;;24.71;38.67;100737.78;5349397;32;34367;-86
2023/05/27 06:00:14;;;;;;;;;;;;;;;23.43;40.51;100752.84;5373562;32;34069;-87
2023/05/27 06:03:16;;;;;;;;;;;;;;;24.01;40.35;100755.78;5378959;32;33629;-86
2023/05/27 06:06:18;;;;;;;;;;;;;;;24.36;39.12;100756.31;5377382;32;33568;-85
2023/05/27 06:09:20;;;;;;;;;;;;;;;23.33;41.05;100759.16;5378725;32;32949;-86
2023/05/27 06:15:31;;;;;;;;;;;;;;;23.34;40.32;100774.25;5350490;32;20446;-74
2023/05/27 06:18:33;;;;;;;;;;;;;;;23.14;40.74;100771.47;5350767;32;34205;-76
2023/05/27 06:21:35;;;;;;;;;;;;;;;23.05;40.39;100777.59;5346087;32;34081;-75
2023/05/27 06:24:40;;;;;;;;;;;;;;;21.95;42.02;100789.34;5361468;32;35149;-75
2023/05/27 06:27:42;;;;;;;;;;;;;;;23.44;39.18;100773.34;5365160;32;45528;-76
2023/05/27 06:30:44;;;;;;;;;;;;;;;24.22;38.05;100779.87;5339575;32;33972;-76
2023/05/27 06:33:46;;;;;;;;;;;;;;;26.08;34.40;100777.62;5352778;32;33513;-75
2023/05/27 06:36:48;;;;;;;;;;;;;;;24.93;35.88;100784.19;5365348;32;33263;-75
2023/05/27 06:39:50;;;;;;;;;;;;;;;24.19;37.21;100779.28;5353654;32;33631;-75
2023/05/27 06:42:53;;;;;;;;;;;;;;;24.06;36.65;100784.91;5368744;32;33984;-75
2023/05/27 06:45:55;;;;;;;;;;;;;;;25.90;33.82;100777.56;5353866;32;33589;-76
2023/05/27 06:49:02;;;;;;;;;;;;;;;24.45;35.92;100785.00;5361462;32;34386;-75
2023/05/27 06:52:05;;;;;;;;;;;;;;;25.15;35.16;100783.88;5363919;32;33151;-75
2023/05/27 06:55:10;;;;;;;;;;;;;;;25.50;34.16;100790.44;5341543;32;34549;-75
2023/05/27 06:58:12;;;;;;;;;;;;;;;26.34;33.27;100796.59;5364783;32;45261;-75
2023/05/27 07:01:14;;;;;;;;;;;;;;;27.17;31.62;100790.97;5354839;32;33088;-75
2023/05/27 07:04:16;;;;;;;;;;;;;;;28.44;30.10;100797.38;5368694;32;33646;-75
2023/05/27 07:07:18;;;;;;;;;;;;;;;28.11;30.07;100795.56;5357354;32;34265;-76
2023/05/27 07:10:20;;;;;;;;;;;;;;;25.25;34.14;100810.78;5339745;32;34206;-75
2023/05/27 07:13:22;;;;;;;;;;;;;;;26.89;31.96;100809.97;5340785;32;34404;-76
2023/05/27 07:16:25;;;;;;;;;;;;;;;27.23;31.08;100801.16;5338633;32;32161;-75
2023/05/27 07:19:27;;;;;;;;;;;;;;;26.85;31.81;100805.88;5367947;32;33732;-76
2023/05/27 07:22:29;;;;;;;;;;;;;;;26.30;32.73;100800.59;5356661;32;33803;-75
2023/05/27 07:25:31;;;;;;;;;;;;;;;28.50;29.55;100790.47;5369655;32;33709;-75
2023/05/27 07:28:33;;;;;;;;;;;;;;;27.86;29.84;100790.06;5353927;32;34408;-75
2023/05/27 07:31:37;;;;;;;;;;;;;;;28.23;29.46;100792.41;5397028;27;33520;-90
2023/05/27 07:34:40;;;;;;;;;;;;;;;28.12;29.25;100794.56;5427258;32;33144;-92
2023/05/27 07:37:42;;;;;;;;;;;;;;;28.06;29.27;100791.50;5415932;32;44662;-90
2023/05/27 07:40:44;;;;;;;;;;;;;;;28.48;28.50;100796.03;5407408;32;35357;-89
2023/05/27 07:43:46;;;;;;;;;;;;;;;29.32;26.85;100788.63;5405609;32;33747;-89
2023/05/27 07:46:48;;;;;;;;;;;;;;;30.02;25.85;100775.22;5386351;32;33272;-88
2023/05/27 07:49:50;;;;;;;;;;;;;;;30.56;24.80;100786.09;5421023;32;33228;-89
2023/05/27 07:52:52;;;;;;;;;;;;;;;29.08;26.87;100782.22;5423136;32;33308;-92
2023/05/27 07:55:55;;;;;;;;;;;;;;;27.75;28.24;100788.50;5422515;32;34969;-89
2023/05/27 07:58:57;;;;;;;;;;;;;;;28.59;27.19;100784.03;5423163;32;34804;-89
2023/05/27 08:01:59;;;;;;;;;;;;;;;27.70;28.31;100781.91;5408121;32;32911;-90
2023/05/27 08:05:08;;;;;;;;;;;;;;;29.96;26.12;100767.81;5402983;32;33510;-88
2023/05/27 08:08:10;;;;;;;;;;;;;;;31.03;23.95;100763.34;5420460;32;36192;-91
2023/05/27 08:11:12;;;;;;;;;;;;;;;29.44;26.06;100768.31;5400095;32;45894;-89
2023/05/27 08:14:15;;;;;;;;;;;;;;;31.35;24.05;100766.81;5398251;32;33206;-90
2023/05/27 08:17:18;;;;;;;;;;;;;;;30.30;24.92;100761.22;5410245;32;33238;-89
2023/05/27 08:20:20;;;;;;;;;;;;;;;31.80;23.23;100763.09;5416242;32;33182;-91
2023/05/27 08:23:22;;;;;;;;;;;;;;;30.37;25.11;100764.88;5431057;32;34114;-90
2023/05/27 08:26:26;;;;;;;;;;;;;;;30.83;24.54;100767.62;5418204;32;33100;-90
2023/05/27 08:29:30;;;;;;;;;;;;;;;31.29;23.94;100760.25;5440392;32;33025;-89
2023/05/27 08:32:32;;;;;;;;;;;;;;;32.57;22.22;100752.47;5439422;32;33842;-90
2023/05/27 08:35:36;;;;;;;;;;;;;;;31.21;24.10;100755.72;5409627;32;32416;-88
2023/05/27 08:38:41;;;;;;;;;;;;;;;31.20;24.52;100759.47;5395054;32;36466;-88
2023/05/27 08:41:52;;;;;;;;;;;;;;;30.77;24.78;100750.19;5445866;32;34246;-92
2023/05/27 08:44:55;;;;;;;;;;;;;;;31.69;23.64;100750.81;5427281;32;33253;-88
2023/05/27 08:47:57;;;;;;;;;;;;;;;32.85;21.91;100747.09;5455238;32;35391;-91
2023/05/27 08:51:05;;;;;;;;;;;;;;;33.42;21.11;100748.78;5430713;32;34963;-88
2023/05/27 08:54:13;;;;;;;;;;;;;;;33.53;21.06;100741.13;5419989;32;35816;-90
2023/05/27 08:57:16;;;;;;;;;;;;;;;31.53;22.64;100737.41;5404281;32;43885;-89
2023/05/27 09:00:19;;;;;;;;;;;;;;;31.80;23.04;100736.75;5372734;32;36324;-89
2023/05/27 09:03:22;;;;;;;;;;;;;;;31.33;23.66;100750.72;5394822;32;33276;-88
2023/05/27 09:06:24;;;;;;;;;;;;;;;33.63;20.72;100744.31;5406223;32;34136;-88
2023/05/27 09:09:26;;;;;;;;;;;;;;;32.02;22.82;100751.25;5397808;32;33821;-89
2023/05/27 09:12:31;;;;;;;;;;;;;;;32.92;21.48;100747.19;5403227;32;33402;-92
2023/05/27 09:15:40;;;;;;;;;;;;;;;31.56;23.21;100745.19;5430787;32;33526;-90
2023/05/27 09:18:42;;;;;;;;;;;;;;;31.07;24.14;100742.97;5406165;32;44403;-91
2023/05/27 09:21:44;;;;;;;;;;;;;;;32.70;22.29;100750.91;5394514;32;33781;-89
2023/05/27 09:24:46;;;;;;;;;;;;;;;31.89;22.79;100750.25;5396839;32;33933;-89
2023/05/27 09:27:48;;;;;;;;;;;;;;;31.55;23.02;100748.91;5422642;32;34625;-92
2023/05/27 09:30:51;;;;;;;;;;;;;;;30.61;24.29;100750.31;5415216;32;33804;-90
2023/05/27 09:33:54;;;;;;;;;;;;;;;31.78;22.56;100749.69;5432322;32;34409;-89
2023/05/27 09:37:00;;;;;;;;;;;;;;;30.13;24.26;100746.91;5432121;32;34020;-90
2023/05/27 09:40:07;;;;;;;;;;;;;;;29.83;24.77;100746.69;5414503;32;33266;-91
2023/05/27 09:43:12;;;;;;;;;;;;;;;28.07;27.69;100757.22;5436180;32;33727;-91
2023/05/27 09:46:14;;;;;;;;;;;;;;;30.42;24.96;100741.63;5427464;32;45666;-90
2023/05/27 09:49:17;;;;;;;;;;;;;;;31.78;23.13;100741.53;5424414;32;34382;-90
2023/05/27 09:52:20;;;;;;;;;;;;;;;31.87;22.82;100728.69;5394302;32;33154;-90
2023/05/27 09:55:23;;;;;;;;;;;;;;;30.95;23.71;100730.88;5355279;32;33743;-92
2023/05/27 09:58:25;;;;;;;;;;;;;;;28.99;26.97;100726.44;5410343;32;33928;-91
2023/05/27 10:01:28;;;;;;;;;;;;;;;30.52;24.39;100735.94;5382282;32;32986;-90
2023/05/27 10:04:33;;;;;;;;;;;;;;;32.09;22.96;100726.84;5431964;32;32297;-91
2023/05/27 10:07:53;;;;;;;;;;;;;;;31.39;22.98;100721.97;5417872;32;33540;-89
2023/05/27 10:11:17;;;;;;;;;;;;;;;32.87;21.29;100714.25;5354462;32;45168;-90
2023/05/27 10:14:19;;;;;;;;;;;;;;;34.46;19.37;100713.16;5415627;32;34992;-90
2023/05/27 10:17:21;;;;;;;;;;;;;;;32.75;21.44;100718.53;5361521;32;33662;-89
2023/05/27 10:20:27;;;;;;;;;;;;;;;30.73;23.53;100727.19;5417655;32;33392;-90
2023/05/27 10:23:30;;;;;;;;;;;;;;;30.60;24.11;100725.06;5410213;32;34413;-90
2023/05/27 10:26:35;;;;;;;;;;;;;;;29.92;24.72;100723.09;5374139;32;33586;-93
2023/05/27 10:29:40;;;;;;;;;;;;;;;31.92;22.54;100718.09;5384516;32;33217;-91
2023/05/27 10:32:51;;;;;;;;;;;;;;;32.86;21.56;100705.25;5380642;32;44592;-89
2023/05/27 10:36:02;;;;;;;;;;;;;;;33.65;20.56;100704.06;5407792;32;34749;-89
2023/05/27 10:39:06;;;;;;;;;;;;;;;33.83;20.46;100707.09;5390220;32;32978;-90
2023/05/27 10:42:08;;;;;;;;;;;;;;;31.90;22.32;100709.28;5380717;32;34656;-90
2023/05/27 10:45:13;;;;;;;;;;;;;;;35.89;18.21;100702.41;5351984;32;44235;-89
2023/05/27 10:48:20;;;;;;;;;;;;;;;36.30;17.87;100692.91;5405726;32;33561;-91
2023/05/27 10:51:32;;;;;;;;;;;;;;;31.88;22.22;100702.34;5420636;32;33219;-90
2023/05/27 10:54:35;;;;;;;;;;;;;;;34.48;19.01;100696.59;5414035;32;33376;-91
2023/05/27 10:57:37;;;;;;;;;;;;;;;30.35;23.72;100705.41;5403687;32;34592;-90
2023/05/27 11:00:42;;;;;;;;;;;;;;;34.56;19.62;100690.91;5397005;32;33722;-91
2023/05/27 11:03:54;;;;;;;;;;;;;;;34.32;19.74;100689.59;5427913;32;44718;-90
2023/05/27 11:06:57;;;;;;;;;;;;;;;32.22;22.24;100696.25;5453669;32;34381;-91
2023/05/27 11:10:04;;;;;;;;;;;;;;;32.79;21.46;100693.44;5430380;32;33971;-91
2023/05/27 11:13:08;;;;;;;;;;;;;;;31.55;22.74;100694.59;5402370;32;32815;-92
2023/05/27 11:16:11;;;;;;;;;;;;;;;31.87;22.37;100693.34;5389658;32;35737;-90
2023/05/27 11:19:13;;;;;;;;;;;;;;;30.51;24.13;100693.59;5445977;32;43604;-91
2023/05/27 11:22:16;;;;;;;;;;;;;;;29.72;24.95;100694.78;5394323;32;33682;-90
2023/05/27 11:25:18;;;;;;;;;;;;;;;32.05;22.34;100692.94;5371242;32;33154;-89
2023/05/27 11:28:21;;;;;;;;;;;;;;;31.47;23.22;100687.41;5402500;32;34550;-91
2023/05/27 11:31:27;;;;;;;;;;;;;;;30.06;25.24;100692.53;5443705;32;35214;-89
2023/05/27 11:34:29;;;;;;;;;;;;;;;28.94;26.72;100690.94;5413783;32;34890;-89
2023/05/27 11:37:35;;;;;;;;;;;;;;;29.96;25.25;100685.69;5441563;32;34483;-89
2023/05/27 11:40:43;;;;;;;;;;;;;;;28.51;27.34;100695.66;5444065;32;34797;-90
2023/05/27 11:43:48;;;;;;;;;;;;;;;29.08;26.58;100692.94;5405175;32;45486;-90
2023/05/27 11:46:50;;;;;;;;;;;;;;;30.20;25.34;100683.66;5420747;32;34224;-91
2023/05/27 11:49:53;;;;;;;;;;;;;;;30.94;24.25;100685.78;5422372;32;33265;-90
2023/05/27 11:52:56;;;;;;;;;;;;;;;32.10;22.85;100682.31;5410721;32;33521;-90
2023/05/27 11:56:00;;;;;;;;;;;;;;;31.17;23.85;100681.13;5385760;32;34478;-89
2023/05/27 11:59:05;;;;;;;;;;;;;;;31.11;23.53;100670.13;5369172;32;33509;-90
2023/05/27 12:02:08;;;;;;;;;;;;;;;32.43;22.02;100669.06;5400473;32;34174;-88
2023/05/27 12:05:14;;;;;;;;;;;;;;;30.88;23.73;100672.94;5398383;32;44172;-89
2023/05/27 12:08:38;;;;;;;;;;;;;;;31.60;22.52;100680.44;5451180;32;33296;-90
2023/05/27 12:11:45;;;;;;;;;;;;;;;31.12;22.79;100669.97;5416893;32;44217;-89
2023/05/27 12:14:47;;;;;;;;;;;;;;;31.74;22.24;100669.53;5422842;32;34919;-90
2023/05/27 12:18:02;;;;;;;;;;;;;;;29.75;24.96;100667.31;5423293;32;33601;-89
2023/05/27 12:21:04;;;;;;;;;;;;;;;29.53;25.73;100660.84;5379610;32;34453;-89
2023/05/27 12:24:06;;;;;;;;;;;;;;;28.70;26.12;100658.47;5355291;32;33187;-91
2023/05/27 12:27:10;;;;;;;;;;;;;;;28.57;26.76;100659.84;5430653;32;32778;-91
2023/05/27 12:30:13;;;;;;;;;;;;;;;27.73;27.33;100662.75;5419053;32;47536;-90
2023/05/27 12:33:18;;;;;;;;;;;;;;;28.64;26.41;100654.59;5428211;32;33311;-89
2023/05/27 12:36:22;;;;;;;;;;;;;;;27.97;27.51;100662.81;5429021;32;33399;-90
2023/05/27 12:39:24;;;;;;;;;;;;;;;29.21;25.16;100659.06;5365273;32;34062;-88
2023/05/27 12:42:29;;;;;;;;;;;;;;;28.42;26.87;100652.59;5415091;32;32993;-90
2023/05/27 12:45:32;;;;;;;;;;;;;;;28.50;27.27;100649.88;5414626;32;33259;-90
2023/05/27 12:48:37;;;;;;;;;;;;;;;28.78;26.88;100634.13;5400743;32;33854;-91
2023/05/27 12:51:39;;;;;;;;;;;;;;;27.26;28.93;100649.75;5429825;32;33314;-90
2023/05/27 12:54:45;;;;;;;;;;;;;;;27.11;29.27;100646.78;5433039;32;42911;-92
2023/05/27 12:57:50;;;;;;;;;;;;;;;27.59;30.24;100645.31;5442361;32;43230;-89
2023/05/27 13:00:54;;;;;;;;;;;;;;;26.40;32.59;100647.78;5390418;32;33648;-91
2023/05/27 13:04:04;;;;;;;;;;;;;;;26.42;32.79;100644.97;5436288;32;34054;-88
2023/05/27 13:07:09;;;;;;;;;;;;;;;26.52;32.90;100642.16;5427353;32;32834;-89
2023/05/27 13:10:18;;;;;;;;;;;;;;;26.90;32.58;100639.03;5414300;32;44849;-88
2023/05/27 13:13:23;;;;;;;;;;;;;;;26.56;33.04;100636.31;5405945;32;45571;-89
2023/05/27 13:16:25;;;;;;;;;;;;;;;26.98;32.16;100644.50;5422803;32;33510;-88
2023/05/27 13:19:32;;;;;;;;;;;;;;;26.69;32.72;100636.72;5446773;32;33969;-89
2023/05/27 13:22:37;;;;;;;;;;;;;;;26.62;32.91;100634.84;5420464;32;33286;-90
2023/05/27 13:25:46;;;;;;;;;;;;;;;27.23;32.23;100634.69;5449062;32;35028;-91
2023/05/27 13:28:48;;;;;;;;;;;;;;;26.52;33.60;100626.81;5426493;32;46393;-91
2023/05/27 13:31:53;;;;;;;;;;;;;;;27.23;32.92;100633.84;5435323;32;33668;-89
2023/05/27 13:34:56;;;;;;;;;;;;;;;26.19;34.59;100631.91;5418467;32;33285;-91
2023/05/27 13:38:02;;;;;;;;;;;;;;;26.23;34.45;100628.94;5432493;32;34192;-91
2023/05/27 13:41:05;;;;;;;;;;;;;;;25.60;35.48;100633.31;5445093;32;34766;-89
2023/05/27 13:44:13;;;;;;;;;;;;;;;25.92;34.90;100621.25;5444450;32;32630;-91
2023/05/27 13:47:16;;;;;;;;;;;;;;;25.93;35.14;100623.78;5416791;32;43535;-91
2023/05/27 13:50:19;;;;;;;;;;;;;;;26.31;34.34;100621.75;5422376;32;34744;-89
2023/05/27 13:53:23;;;;;;;;;;;;;;;25.83;35.14;100609.56;5439138;32;33601;-90
2023/05/27 13:56:25;;;;;;;;;;;;;;;26.74;33.63;100601.22;5452794;32;32721;-91
2023/05/27 13:59:28;;;;;;;;;;;;;;;26.38;34.36;100595.88;5445246;32;33372;-90
2023/05/27 14:02:35;;;;;;;;;;;;;;;27.02;33.53;100592.94;5467792;32;32950;-91
2023/05/27 14:05:40;;;;;;;;;;;;;;;26.87;33.86;100590.84;5411584;32;33986;-87
2023/05/27 14:08:42;;;;;;;;;;;;;;;28.18;32.26;100580.44;5430104;32;33357;-90
2023/05/27 14:11:45;;;;;;;;;;;;;;;27.42;32.85;100579.63;5412629;32;35003;-91
2023/05/27 14:14:50;;;;;;;;;;;;;;;26.59;34.46;100581.22;5437592;32;35323;-91
2023/05/27 14:17:56;;;;;;;;;;;;;;;27.09;33.80;100584.06;5414960;32;33141;-90
2023/05/27 14:20:59;;;;;;;;;;;;;;;26.79;33.57;100573.75;5378621;32;35738;-88
2023/05/27 14:24:01;;;;;;;;;;;;;;;26.95;34.12;100569.28;5393576;32;34224;-90
2023/05/27 14:27:03;;;;;;;;;;;;;;;26.51;34.39;100571.25;5391906;32;33719;-90
2023/05/27 14:30:08;;;;;;;;;;;;;;;25.78;35.84;100563.41;5410861;32;36176;-90
2023/05/27 14:33:12;;;;;;;;;;;;;;;26.15;34.54;100575.84;5424557;32;33804;-90
2023/05/27 14:36:14;;;;;;;;;;;;;;;26.66;33.60;100571.50;5431097;32;44156;-89
2023/05/27 14:39:20;;;;;;;;;;;;;;;25.85;35.27;100567.16;5432409;32;31670;-90
2023/05/27 14:42:24;;;;;;;;;;;;;;;26.70;33.88;100562.94;5415854;32;33136;-90
2023/05/27 14:45:26;;;;;;;;;;;;;;;25.16;37.00;100564.19;5439561;32;33734;-90
2023/05/27 14:48:31;;;;;;;;;;;;;;;24.25;39.03;100570.09;5416697;32;35555;-89
2023/05/27 14:51:36;;;;;;;;;;;;;;;25.22;37.22;100566.28;5454242;32;33433;-91
2023/05/27 14:54:46;;;;;;;;;;;;;;;25.43;36.83;100558.78;5427160;32;44093;-88
2023/05/27 14:57:51;;;;;;;;;;;;;;;26.00;35.97;100545.06;5444609;32;34148;-89
2023/05/27 15:00:53;;;;;;;;;;;;;;;26.13;35.11;100537.41;5442743;32;32958;-89
2023/05/27 15:03:56;;;;;;;;;;;;;;;25.76;35.48;100537.59;5429657;32;33205;-90
2023/05/27 15:07:01;;;;;;;;;;;;;;;25.79;35.44;100535.47;5447900;32;33630;-89
2023/05/27 15:10:05;;;;;;;;;;;;;;;25.58;36.26;100543.81;5397458;32;33003;-92
2023/05/27 15:13:11;;;;;;;;;;;;;;;26.37;35.19;100534.91;5376440;32;44646;-90
2023/05/27 15:16:14;;;;;;;;;;;;;;;25.35;37.05;100542.56;5404647;32;34684;-90
2023/05/27 15:19:16;;;;;;;;;;;;;;;25.45;36.84;100539.81;5401466;32;33647;-91
2023/05/27 15:22:18;;;;;;;;;;;;;;;25.41;37.10;100546.50;5401371;32;33910;-90
2023/05/27 15:25:20;;;;;;;;;;;;;;;26.09;36.23;100544.16;5395029;32;32572;-91
2023/05/27 15:28:22;;;;;;;;;;;;;;;25.96;36.29;100538.31;5401487;32;34546;-90
2023/05/27 15:31:27;;;;;;;;;;;;;;;26.10;36.19;100535.91;5383031;32;33520;-90
2023/05/27 15:34:32;;;;;;;;;;;;;;;26.27;35.92;100539.53;5364038;32;34284;-90
2023/05/27 15:37:34;;;;;;;;;;;;;;;25.44;37.55;100538.09;5394253;32;34427;-91
2023/05/27 15:40:40;;;;;;;;;;;;;;;26.07;36.11;100528.13;5385026;32;33657;-89
2023/05/27 15:43:42;;;;;;;;;;;;;;;25.15;37.87;100541.00;5388165;32;44395;-90
2023/05/27 15:46:44;;;;;;;;;;;;;;;24.89;38.31;100538.13;5379566;32;34222;-90